XBFGP MMPA-MMQT
Flight info
| Callsign | XBFGP |
|---|---|
| Flight time | 0h 34m |
| Altitude | 13500 |
| Route | MMPA DCT MMQT |
| Aircraft | TBM9/L-V/N |
Departure
| Time | 2026-05-05 16:59 |
|---|---|
| Airport | El Tajín National Airport (MMPA) |
Arrival
| Time | 2026-05-05 17:33 |
|---|---|
| Airport | Querétaro Intercontinental Airport (MMQT) |
| Time | Latitude | Longitude | Altitude | Speed | Heading |
|---|---|---|---|---|---|
| 2026-05-05 16:55 | 20.60017 | -97.46026 | 487 ft | 0 kts | 116° |
| 2026-05-05 16:57 | 20.60097 | -97.45954 | 487 ft | 28 kts | 36° |
| 2026-05-05 16:57 | 20.60118 | -97.45938 | 487 ft | 0 kts | 36° |
| 2026-05-05 16:58 | 20.60206 | -97.45900 | 481 ft | 30 kts | 295° |
| 2026-05-05 16:58 | 20.60209 | -97.46235 | 490 ft | 69 kts | 270° |
| 2026-05-05 16:58 | 20.60194 | -97.46864 | 570 ft | 92 kts | 265° |
| 2026-05-05 16:59 | 20.60149 | -97.47503 | 791 ft | 93 kts | 270° |
| 2026-05-05 16:59 | 20.60136 | -97.48319 | 852 ft | 122 kts | 267° |
| 2026-05-05 16:59 | 20.60171 | -97.49284 | 1169 ft | 142 kts | 276° |
| 2026-05-05 16:59 | 20.60257 | -97.50433 | 1436 ft | 169 kts | 273° |
| 2026-05-05 17:00 | 20.60300 | -97.51760 | 1785 ft | 189 kts | 270° |
| 2026-05-05 17:00 | 20.60325 | -97.53222 | 2124 ft | 204 kts | 270° |
| 2026-05-05 17:00 | 20.60342 | -97.54787 | 2475 ft | 216 kts | 270° |
| 2026-05-05 17:00 | 20.60365 | -97.56431 | 2807 ft | 226 kts | 270° |
| 2026-05-05 17:01 | 20.60388 | -97.58112 | 3128 ft | 232 kts | 270° |
| 2026-05-05 17:01 | 20.60407 | -97.59854 | 3439 ft | 237 kts | 270° |
| 2026-05-05 17:01 | 20.60431 | -97.61620 | 3750 ft | 239 kts | 270° |
| 2026-05-05 17:01 | 20.60457 | -97.63400 | 4064 ft | 240 kts | 270° |
| 2026-05-05 17:02 | 20.60478 | -97.65187 | 4384 ft | 241 kts | 270° |
| 2026-05-05 17:02 | 20.60499 | -97.66984 | 4705 ft | 243 kts | 270° |
| 2026-05-05 17:02 | 20.60521 | -97.68789 | 5008 ft | 243 kts | 271° |
| 2026-05-05 17:02 | 20.60544 | -97.70586 | 5314 ft | 241 kts | 271° |
| 2026-05-05 17:03 | 20.60566 | -97.72371 | 5617 ft | 240 kts | 271° |
| 2026-05-05 17:03 | 20.60578 | -97.73550 | 5825 ft | 240 kts | 271° |
| 2026-05-05 17:03 | 20.60594 | -97.75325 | 6135 ft | 239 kts | 271° |
| 2026-05-05 17:03 | 20.60619 | -97.77098 | 6433 ft | 238 kts | 271° |
| 2026-05-05 17:04 | 20.60637 | -97.78856 | 6718 ft | 236 kts | 271° |
| 2026-05-05 17:04 | 20.60657 | -97.80606 | 7014 ft | 236 kts | 271° |
| 2026-05-05 17:04 | 20.60677 | -97.82360 | 7309 ft | 237 kts | 272° |
| 2026-05-05 17:04 | 20.60698 | -97.84120 | 7607 ft | 237 kts | 272° |
| 2026-05-05 17:05 | 20.60718 | -97.85883 | 7910 ft | 238 kts | 272° |
| 2026-05-05 17:05 | 20.60737 | -97.87652 | 8221 ft | 238 kts | 272° |
| 2026-05-05 17:05 | 20.60756 | -97.89425 | 8532 ft | 239 kts | 272° |
| 2026-05-05 17:05 | 20.60775 | -97.91201 | 8849 ft | 240 kts | 272° |
| 2026-05-05 17:06 | 20.60795 | -97.92983 | 9167 ft | 240 kts | 273° |
| 2026-05-05 17:06 | 20.60814 | -97.94774 | 9489 ft | 241 kts | 273° |
| 2026-05-05 17:06 | 20.60833 | -97.96567 | 9800 ft | 242 kts | 273° |
| 2026-05-05 17:06 | 20.60851 | -97.98343 | 10091 ft | 242 kts | 273° |
| 2026-05-05 17:07 | 20.60869 | -98.00144 | 10387 ft | 243 kts | 273° |
| 2026-05-05 17:07 | 20.60890 | -98.01953 | 10686 ft | 244 kts | 273° |
| 2026-05-05 17:07 | 20.60907 | -98.03770 | 10985 ft | 245 kts | 272° |
| 2026-05-05 17:07 | 20.60924 | -98.05593 | 11287 ft | 246 kts | 272° |
| 2026-05-05 17:08 | 20.60943 | -98.07423 | 11594 ft | 247 kts | 273° |
| 2026-05-05 17:08 | 20.60962 | -98.09260 | 11909 ft | 248 kts | 273° |
| 2026-05-05 17:08 | 20.60980 | -98.11109 | 12221 ft | 249 kts | 273° |
| 2026-05-05 17:08 | 20.60998 | -98.12967 | 12538 ft | 251 kts | 273° |
| 2026-05-05 17:09 | 20.61016 | -98.14835 | 12860 ft | 252 kts | 273° |
| 2026-05-05 17:09 | 20.61033 | -98.16692 | 13177 ft | 254 kts | 273° |
| 2026-05-05 17:09 | 20.61049 | -98.18582 | 13500 ft | 255 kts | 273° |
| 2026-05-05 17:09 | 20.61064 | -98.20485 | 13807 ft | 258 kts | 272° |
| 2026-05-05 17:10 | 20.61084 | -98.22403 | 14105 ft | 259 kts | 274° |
| 2026-05-05 17:10 | 20.61105 | -98.24336 | 14332 ft | 263 kts | 273° |
| 2026-05-05 17:10 | 20.61127 | -98.26335 | 14335 ft | 275 kts | 273° |
| 2026-05-05 17:10 | 20.61145 | -98.28410 | 14347 ft | 283 kts | 273° |
| 2026-05-05 17:11 | 20.61166 | -98.30536 | 14342 ft | 289 kts | 273° |
| 2026-05-05 17:11 | 20.61184 | -98.32692 | 14351 ft | 292 kts | 273° |
| 2026-05-05 17:11 | 20.61200 | -98.34869 | 14357 ft | 295 kts | 272° |
| 2026-05-05 17:11 | 20.61214 | -98.37068 | 14349 ft | 296 kts | 272° |
| 2026-05-05 17:12 | 20.61241 | -98.39273 | 14351 ft | 298 kts | 272° |
| 2026-05-05 17:12 | 20.61257 | -98.41490 | 14348 ft | 299 kts | 273° |
| 2026-05-05 17:12 | 20.61274 | -98.43713 | 14333 ft | 299 kts | 272° |
| 2026-05-05 17:12 | 20.61289 | -98.45898 | 14340 ft | 298 kts | 272° |
| 2026-05-05 17:13 | 20.61302 | -98.48120 | 14339 ft | 298 kts | 272° |
| 2026-05-05 17:13 | 20.61321 | -98.50340 | 14339 ft | 299 kts | 272° |
| 2026-05-05 17:13 | 20.61342 | -98.52562 | 14337 ft | 299 kts | 272° |
| 2026-05-05 17:13 | 20.61359 | -98.54786 | 14334 ft | 299 kts | 272° |
| 2026-05-05 17:14 | 20.61365 | -98.57011 | 14338 ft | 300 kts | 272° |
| 2026-05-05 17:14 | 20.61383 | -98.59234 | 14331 ft | 299 kts | 272° |
| 2026-05-05 17:14 | 20.61401 | -98.61424 | 14324 ft | 299 kts | 272° |
| 2026-05-05 17:14 | 20.61413 | -98.63646 | 14327 ft | 299 kts | 272° |
| 2026-05-05 17:15 | 20.61425 | -98.65872 | 14321 ft | 300 kts | 273° |
| 2026-05-05 17:15 | 20.61452 | -98.68099 | 14329 ft | 300 kts | 272° |
| 2026-05-05 17:15 | 20.61467 | -98.70333 | 14326 ft | 302 kts | 272° |
| 2026-05-05 17:15 | 20.61471 | -98.72577 | 14323 ft | 301 kts | 271° |
| 2026-05-05 17:16 | 20.61479 | -98.74817 | 14324 ft | 301 kts | 272° |
| 2026-05-05 17:16 | 20.61498 | -98.77022 | 14323 ft | 301 kts | 272° |
| 2026-05-05 17:16 | 20.61515 | -98.79257 | 14321 ft | 300 kts | 272° |
| 2026-05-05 17:16 | 20.61523 | -98.81481 | 14325 ft | 300 kts | 271° |
| 2026-05-05 17:17 | 20.61534 | -98.83713 | 14324 ft | 301 kts | 272° |
| 2026-05-05 17:17 | 20.61553 | -98.85944 | 14323 ft | 301 kts | 272° |
| 2026-05-05 17:17 | 20.61563 | -98.88183 | 14320 ft | 301 kts | 272° |
| 2026-05-05 17:17 | 20.61574 | -98.90414 | 14317 ft | 300 kts | 272° |
| 2026-05-05 17:18 | 20.61582 | -98.92641 | 14316 ft | 300 kts | 271° |
| 2026-05-05 17:18 | 20.61594 | -98.94865 | 14321 ft | 300 kts | 272° |
| 2026-05-05 17:18 | 20.61610 | -98.97097 | 14321 ft | 301 kts | 272° |
| 2026-05-05 17:18 | 20.61621 | -98.99331 | 14323 ft | 300 kts | 271° |
| 2026-05-05 17:19 | 20.61626 | -99.01561 | 14326 ft | 301 kts | 272° |
| 2026-05-05 17:19 | 20.61635 | -99.03767 | 14327 ft | 302 kts | 271° |
| 2026-05-05 17:19 | 20.61647 | -99.06010 | 14324 ft | 302 kts | 272° |
| 2026-05-05 17:19 | 20.61660 | -99.08246 | 14323 ft | 301 kts | 271° |
| 2026-05-05 17:20 | 20.61664 | -99.10481 | 14320 ft | 301 kts | 271° |
| 2026-05-05 17:20 | 20.61672 | -99.12716 | 14324 ft | 301 kts | 271° |
| 2026-05-05 17:20 | 20.61683 | -99.14948 | 14325 ft | 300 kts | 271° |
| 2026-05-05 17:20 | 20.61689 | -99.17179 | 14331 ft | 301 kts | 271° |
| 2026-05-05 17:21 | 20.61697 | -99.19389 | 14330 ft | 301 kts | 271° |
| 2026-05-05 17:21 | 20.61705 | -99.21620 | 14332 ft | 300 kts | 271° |
| 2026-05-05 17:21 | 20.61714 | -99.23849 | 14332 ft | 300 kts | 271° |
| 2026-05-05 17:22 | 20.61722 | -99.28308 | 14337 ft | 300 kts | 271° |
| 2026-05-05 17:22 | 20.61733 | -99.30538 | 14340 ft | 301 kts | 271° |
| 2026-05-05 17:22 | 20.61744 | -99.32769 | 14337 ft | 300 kts | 271° |
| 2026-05-05 17:22 | 20.61745 | -99.34997 | 14337 ft | 300 kts | 271° |
| 2026-05-05 17:23 | 20.61748 | -99.37229 | 14339 ft | 300 kts | 271° |
| 2026-05-05 17:23 | 20.61755 | -99.39457 | 14341 ft | 300 kts | 271° |
| 2026-05-05 17:23 | 20.61763 | -99.41686 | 14339 ft | 301 kts | 271° |
| 2026-05-05 17:23 | 20.61770 | -99.43918 | 14342 ft | 300 kts | 271° |
| 2026-05-05 17:24 | 20.61766 | -99.46147 | 14344 ft | 301 kts | 271° |
| 2026-05-05 17:24 | 20.61769 | -99.48383 | 14345 ft | 301 kts | 271° |
| 2026-05-05 17:24 | 20.61782 | -99.50590 | 14340 ft | 301 kts | 271° |
| 2026-05-05 17:24 | 20.61787 | -99.52827 | 14345 ft | 301 kts | 271° |
| 2026-05-05 17:25 | 20.61784 | -99.55060 | 14341 ft | 301 kts | 271° |
| 2026-05-05 17:25 | 20.61783 | -99.56571 | 14345 ft | 300 kts | 271° |
| 2026-05-05 17:25 | 20.61793 | -99.59526 | 14346 ft | 301 kts | 271° |
| 2026-05-05 17:25 | 20.61794 | -99.61758 | 14344 ft | 301 kts | 271° |
| 2026-05-05 17:26 | 20.61793 | -99.63999 | 14350 ft | 300 kts | 271° |
| 2026-05-05 17:26 | 20.61801 | -99.66228 | 14350 ft | 300 kts | 271° |
| 2026-05-05 17:26 | 20.61799 | -99.68459 | 14354 ft | 301 kts | 270° |
| 2026-05-05 17:26 | 20.61795 | -99.70696 | 14346 ft | 301 kts | 271° |
| 2026-05-05 17:27 | 20.61800 | -99.72898 | 14355 ft | 300 kts | 271° |
| 2026-05-05 17:27 | 20.61807 | -99.75128 | 14356 ft | 300 kts | 271° |
| 2026-05-05 17:27 | 20.61802 | -99.77354 | 14354 ft | 300 kts | 270° |
| 2026-05-05 17:27 | 20.61799 | -99.79588 | 14355 ft | 300 kts | 271° |
| 2026-05-05 17:28 | 20.61801 | -99.81812 | 14388 ft | 300 kts | 270° |
| 2026-05-05 17:28 | 20.61803 | -99.84039 | 14429 ft | 300 kts | 270° |
| 2026-05-05 17:28 | 20.61804 | -99.86264 | 14470 ft | 299 kts | 270° |
| 2026-05-05 17:28 | 20.61800 | -99.88486 | 14505 ft | 299 kts | 270° |
| 2026-05-05 17:29 | 20.61797 | -99.90711 | 14541 ft | 299 kts | 270° |
| 2026-05-05 17:29 | 20.61795 | -99.92938 | 14477 ft | 303 kts | 270° |
| 2026-05-05 17:29 | 20.61802 | -99.95186 | 14295 ft | 309 kts | 271° |
| 2026-05-05 17:29 | 20.61793 | -99.97488 | 14106 ft | 312 kts | 267° |
| 2026-05-05 17:30 | 20.61542 | -99.99793 | 13903 ft | 313 kts | 261° |
| 2026-05-05 17:30 | 20.61173 | -100.02083 | 13030 ft | 307 kts | 260° |
| 2026-05-05 17:30 | 20.60787 | -100.04335 | 11069 ft | 273 kts | 260° |
| 2026-05-05 17:30 | 20.60489 | -100.05916 | 9956 ft | 176 kts | 262° |
| 2026-05-05 17:31 | 20.60387 | -100.07029 | 9292 ft | 139 kts | 265° |
| 2026-05-05 17:31 | 20.60323 | -100.08328 | 8651 ft | 203 kts | 269° |
| 2026-05-05 17:31 | 20.60270 | -100.09885 | 8647 ft | 214 kts | 270° |
| 2026-05-05 17:31 | 20.60372 | -100.11482 | 8623 ft | 211 kts | 281° |
| 2026-05-05 17:32 | 20.60682 | -100.12876 | 8240 ft | 154 kts | 282° |
| 2026-05-05 17:32 | 20.60877 | -100.13849 | 7757 ft | 122 kts | 282° |
| 2026-05-05 17:32 | 20.61036 | -100.14667 | 7453 ft | 114 kts | 280° |
| 2026-05-05 17:32 | 20.61185 | -100.15558 | 6975 ft | 126 kts | 280° |
| 2026-05-05 17:33 | 20.61349 | -100.16438 | 6464 ft | 113 kts | 280° |
| 2026-05-05 17:33 | 20.61471 | -100.17125 | 6303 ft | 62 kts | 282° |
| 2026-05-05 17:33 | 20.61509 | -100.17338 | 6302 ft | 33 kts | 282° |
| 2026-05-05 17:33 | 20.61565 | -100.17611 | 6301 ft | 24 kts | 299° |
| 2026-05-05 17:34 | 20.61627 | -100.17549 | 6301 ft | 16 kts | 71° |
| 2026-05-05 17:34 | 20.61664 | -100.17432 | 6301 ft | 13 kts | 66° |
| 2026-05-05 17:34 | 20.61703 | -100.17472 | 6301 ft | 12 kts | 283° |
| 2026-05-05 17:34 | 20.61721 | -100.17579 | 6300 ft | 17 kts | 284° |
| 2026-05-05 17:35 | 20.61748 | -100.17725 | 6300 ft | 23 kts | 280° |
| 2026-05-05 17:35 | 20.61782 | -100.17931 | 6300 ft | 36 kts | 279° |
| 2026-05-05 17:35 | 20.61845 | -100.18252 | 6300 ft | 58 kts | 279° |
| 2026-05-05 17:35 | 20.61934 | -100.18662 | 6300 ft | 39 kts | 303° |
| 2026-05-05 17:36 | 20.62168 | -100.18739 | 6300 ft | 29 kts | 353° |
| 2026-05-05 17:36 | 20.62191 | -100.18737 | 6300 ft | 0 kts | 26° |